sensor_id;sensor_type;location;lat;lon;timestamp;pressure;altitude;pressure_sealevel;temperature;humidity
29045;BME280;16133;49.486;12.176;2023-03-17T00:01:35;97496.47;;;-3.51;100.00
29045;BME280;16133;49.486;12.176;2023-03-17T00:04:00;97474.22;;;-3.55;100.00
29045;BME280;16133;49.486;12.176;2023-03-17T00:06:28;97489.44;;;-3.34;100.00
29045;BME280;16133;49.486;12.176;2023-03-17T00:08:54;97489.25;;;-3.31;100.00
29045;BME280;16133;49.486;12.176;2023-03-17T00:11:20;97482.19;;;-3.29;100.00
29045;BME280;16133;49.486;12.176;2023-03-17T00:13:46;97477.13;;;-3.31;100.00
29045;BME280;16133;49.486;12.176;2023-03-17T00:16:23;97456.06;;;-3.41;100.00
29045;BME280;16133;49.486;12.176;2023-03-17T00:18:50;97453.78;;;-3.45;100.00
29045;BME280;16133;49.486;12.176;2023-03-17T00:21:25;97462.28;;;-3.43;100.00
29045;BME280;16133;49.486;12.176;2023-03-17T00:23:51;97474.06;;;-3.38;100.00
29045;BME280;16133;49.486;12.176;2023-03-17T00:26:17;97470.00;;;-3.42;100.00
29045;BME280;16133;49.486;12.176;2023-03-17T00:28:43;97474.06;;;-3.38;100.00
29045;BME280;16133;49.486;12.176;2023-03-17T00:31:21;97473.13;;;-3.37;100.00
29045;BME280;16133;49.486;12.176;2023-03-17T00:33:48;97471.63;;;-3.41;100.00
29045;BME280;16133;49.486;12.176;2023-03-17T00:36:19;97468.50;;;-3.46;100.00
29045;BME280;16133;49.486;12.176;2023-03-17T00:38:45;97449.22;;;-3.56;100.00
29045;BME280;16133;49.486;12.176;2023-03-17T00:41:10;97452.56;;;-3.54;100.00
29045;BME280;16133;49.486;12.176;2023-03-17T00:43:36;97465.34;;;-3.51;100.00
29045;BME280;16133;49.486;12.176;2023-03-17T00:46:10;97464.44;;;-3.50;100.00
29045;BME280;16133;49.486;12.176;2023-03-17T00:48:37;97443.38;;;-3.59;100.00
29045;BME280;16133;49.486;12.176;2023-03-17T00:51:02;97435.41;;;-3.56;100.00
29045;BME280;16133;49.486;12.176;2023-03-17T00:53:28;97449.13;;;-3.54;100.00
29045;BME280;16133;49.486;12.176;2023-03-17T00:55:53;97441.63;;;-3.59;100.00
29045;BME280;16133;49.486;12.176;2023-03-17T00:58:30;97444.78;;;-3.54;100.00
29045;BME280;16133;49.486;12.176;2023-03-17T01:00:57;97443.88;;;-3.53;100.00
29045;BME280;16133;49.486;12.176;2023-03-17T01:03:24;97434.22;;;-3.51;100.00
29045;BME280;16133;49.486;12.176;2023-03-17T01:05:51;97425.53;;;-3.50;100.00
29045;BME280;16133;49.486;12.176;2023-03-17T01:08:19;97402.81;;;-3.60;100.00
29045;BME280;16133;49.486;12.176;2023-03-17T01:10:45;97408.75;;;-3.58;100.00
29045;BME280;16133;49.486;12.176;2023-03-17T01:13:12;97419.22;;;-3.46;100.00
29045;BME280;16133;49.486;12.176;2023-03-17T01:15:40;97407.25;;;-3.48;100.00
29045;BME280;16133;49.486;12.176;2023-03-17T01:18:09;97417.47;;;-3.45;100.00
29045;BME280;16133;49.486;12.176;2023-03-17T01:20:36;97412.38;;;-3.47;100.00
29045;BME280;16133;49.486;12.176;2023-03-17T01:23:01;97399.41;;;-3.47;100.00
29045;BME280;16133;49.486;12.176;2023-03-17T01:25:27;97371.63;;;-3.59;100.00
29045;BME280;16133;49.486;12.176;2023-03-17T01:27:54;97388.09;;;-3.46;100.00
29045;BME280;16133;49.486;12.176;2023-03-17T01:30:28;97350.06;;;-3.73;100.00
29045;BME280;16133;49.486;12.176;2023-03-17T01:32:54;97389.94;;;-3.48;100.00
29045;BME280;16133;49.486;12.176;2023-03-17T01:35:21;97396.59;;;-3.44;100.00
29045;BME280;16133;49.486;12.176;2023-03-17T01:37:48;97389.84;;;-3.46;100.00
29045;BME280;16133;49.486;12.176;2023-03-17T01:40:27;97378.72;;;-3.48;100.00
29045;BME280;16133;49.486;12.176;2023-03-17T01:42:58;97384.03;;;-3.50;100.00
29045;BME280;16133;49.486;12.176;2023-03-17T01:48:33;97378.38;;;-3.56;100.00
29045;BME280;16133;49.486;12.176;2023-03-17T01:51:01;97376.72;;;-3.57;100.00
29045;BME280;16133;49.486;12.176;2023-03-17T01:53:28;97367.84;;;-3.53;100.00
29045;BME280;16133;49.486;12.176;2023-03-17T01:55:55;97359.03;;;-3.51;100.00
29045;BME280;16133;49.486;12.176;2023-03-17T01:58:23;97354.75;;;-3.52;100.00
29045;BME280;16133;49.486;12.176;2023-03-17T02:00:49;97337.53;;;-3.67;100.00
29045;BME280;16133;49.486;12.176;2023-03-17T02:03:15;97364.28;;;-3.52;100.00
29045;BME280;16133;49.486;12.176;2023-03-17T02:05:42;97362.72;;;-3.55;100.00
29045;BME280;16133;49.486;12.176;2023-03-17T02:08:11;97358.56;;;-3.57;100.00
29045;BME280;16133;49.486;12.176;2023-03-17T02:10:38;97359.28;;;-3.55;100.00
29045;BME280;16133;49.486;12.176;2023-03-17T02:13:04;97340.88;;;-3.65;100.00
29045;BME280;16133;49.486;12.176;2023-03-17T02:15:38;97359.03;;;-3.51;100.00
29045;BME280;16133;49.486;12.176;2023-03-17T02:18:04;97356.63;;;-3.54;100.00
29045;BME280;16133;49.486;12.176;2023-03-17T02:22:56;97355.38;;;-3.48;100.00
29045;BME280;16133;49.486;12.176;2023-03-17T02:25:23;97328.66;;;-3.63;100.00
29045;BME280;16133;49.486;12.176;2023-03-17T02:27:52;97368.19;;;-3.45;100.00
29045;BME280;16133;49.486;12.176;2023-03-17T02:30:21;97353.28;;;-3.42;100.00
29045;BME280;16133;49.486;12.176;2023-03-17T02:32:47;97329.56;;;-3.50;100.00
29045;BME280;16133;49.486;12.176;2023-03-17T02:35:13;97348.44;;;-3.33;100.00
29045;BME280;16133;49.486;12.176;2023-03-17T02:37:39;97335.00;;;-3.26;100.00
29045;BME280;16133;49.486;12.176;2023-03-17T02:40:06;97290.06;;;-3.41;100.00
29045;BME280;16133;49.486;12.176;2023-03-17T02:42:32;97325.91;;;-3.06;100.00
29045;BME280;16133;49.486;12.176;2023-03-17T02:44:58;97316.00;;;-3.00;100.00
29045;BME280;16133;49.486;12.176;2023-03-17T02:47:24;97320.78;;;-2.94;100.00
29045;BME280;16133;49.486;12.176;2023-03-17T02:49:50;97309.56;;;-2.94;100.00
29045;BME280;16133;49.486;12.176;2023-03-17T02:52:16;97307.59;;;-2.91;100.00
29045;BME280;16133;49.486;12.176;2023-03-17T02:54:41;97308.44;;;-2.90;100.00
29045;BME280;16133;49.486;12.176;2023-03-17T02:57:07;97311.56;;;-2.85;100.00
29045;BME280;16133;49.486;12.176;2023-03-17T02:59:32;97307.94;;;-2.82;100.00
29045;BME280;16133;49.486;12.176;2023-03-17T03:01:58;97321.03;;;-2.84;100.00
29045;BME280;16133;49.486;12.176;2023-03-17T03:04:23;97327.03;;;-2.83;100.00
29045;BME280;16133;49.486;12.176;2023-03-17T03:06:49;97313.34;;;-2.85;100.00
29045;BME280;16133;49.486;12.176;2023-03-17T03:09:14;97313.53;;;-2.88;100.00
29045;BME280;16133;49.486;12.176;2023-03-17T03:11:42;97313.06;;;-2.95;100.00
29045;BME280;16133;49.486;12.176;2023-03-17T03:14:08;97255.06;;;-3.33;100.00
29045;BME280;16133;49.486;12.176;2023-03-17T03:16:34;97314.41;;;-3.02;100.00
29045;BME280;16133;49.486;12.176;2023-03-17T03:18:59;97319.09;;;-3.07;100.00
29045;BME280;16133;49.486;12.176;2023-03-17T03:21:24;97305.00;;;-3.17;100.00
29045;BME280;16133;49.486;12.176;2023-03-17T03:23:50;97277.25;;;-3.29;100.00
29045;BME280;16133;49.486;12.176;2023-03-17T03:26:16;97300.56;;;-3.15;100.00
29045;BME280;16133;49.486;12.176;2023-03-17T03:28:41;97302.81;;;-3.23;100.00
29045;BME280;16133;49.486;12.176;2023-03-17T03:31:07;97321.81;;;-3.23;100.00
29045;BME280;16133;49.486;12.176;2023-03-17T03:33:33;97315.78;;;-3.23;100.00
29045;BME280;16133;49.486;12.176;2023-03-17T03:35:58;97327.94;;;-3.24;100.00
29045;BME280;16133;49.486;12.176;2023-03-17T03:38:25;97326.66;;;-3.31;100.00
29045;BME280;16133;49.486;12.176;2023-03-17T03:40:51;97276.25;;;-3.68;100.00
29045;BME280;16133;49.486;12.176;2023-03-17T03:43:16;97330.38;;;-3.35;100.00
29045;BME280;16133;49.486;12.176;2023-03-17T03:45:41;97324.53;;;-3.39;100.00
29045;BME280;16133;49.486;12.176;2023-03-17T03:48:07;97321.13;;;-3.39;100.00
29045;BME280;16133;49.486;12.176;2023-03-17T03:50:32;97322.88;;;-3.40;100.00
29045;BME280;16133;49.486;12.176;2023-03-17T03:52:57;97305.84;;;-3.44;100.00
29045;BME280;16133;49.486;12.176;2023-03-17T03:55:23;97313.63;;;-3.44;100.00
29045;BME280;16133;49.486;12.176;2023-03-17T03:57:48;97318.81;;;-3.44;100.00
29045;BME280;16133;49.486;12.176;2023-03-17T04:00:14;97275.44;;;-3.68;100.00
29045;BME280;16133;49.486;12.176;2023-03-17T04:02:40;97302.03;;;-3.52;100.00
29045;BME280;16133;49.486;12.176;2023-03-17T04:05:07;97281.16;;;-3.63;100.00
29045;BME280;16133;49.486;12.176;2023-03-17T04:07:34;97303.53;;;-3.48;100.00
29045;BME280;16133;49.486;12.176;2023-03-17T04:09:59;97295.22;;;-3.53;100.00
29045;BME280;16133;49.486;12.176;2023-03-17T04:12:24;97295.75;;;-3.48;100.00
29045;BME280;16133;49.486;12.176;2023-03-17T04:14:50;97296.78;;;-3.51;100.00
29045;BME280;16133;49.486;12.176;2023-03-17T04:17:15;97296.88;;;-3.52;100.00
29045;BME280;16133;49.486;12.176;2023-03-17T04:19:41;97288.28;;;-3.53;100.00
29045;BME280;16133;49.486;12.176;2023-03-17T04:22:07;97291.88;;;-3.55;100.00
29045;BME280;16133;49.486;12.176;2023-03-17T04:24:33;97293.00;;;-3.59;100.00
29045;BME280;16133;49.486;12.176;2023-03-17T04:26:59;97294.59;;;-3.57;100.00
29045;BME280;16133;49.486;12.176;2023-03-17T04:29:25;97271.63;;;-3.63;100.00
29045;BME280;16133;49.486;12.176;2023-03-17T04:31:50;97289.91;;;-3.52;100.00
29045;BME280;16133;49.486;12.176;2023-03-17T04:34:17;97281.41;;;-3.54;100.00
29045;BME280;16133;49.486;12.176;2023-03-17T04:36:43;97282.78;;;-3.48;100.00
29045;BME280;16133;49.486;12.176;2023-03-17T04:39:09;97280.66;;;-3.42;100.00
29045;BME280;16133;49.486;12.176;2023-03-17T04:41:35;97251.97;;;-3.53;100.00
29045;BME280;16133;49.486;12.176;2023-03-17T04:44:00;97276.59;;;-3.46;100.00
29045;BME280;16133;49.486;12.176;2023-03-17T04:46:26;97279.81;;;-3.42;100.00
29045;BME280;16133;49.486;12.176;2023-03-17T04:48:51;97287.47;;;-3.41;100.00
29045;BME280;16133;49.486;12.176;2023-03-17T04:51:17;97283.97;;;-3.40;100.00
29045;BME280;16133;49.486;12.176;2023-03-17T04:53:42;97294.25;;;-3.38;100.00
29045;BME280;16133;49.486;12.176;2023-03-17T04:56:09;97295.91;;;-3.37;100.00
29045;BME280;16133;49.486;12.176;2023-03-17T04:58:34;97279.31;;;-3.34;100.00
29045;BME280;16133;49.486;12.176;2023-03-17T05:01:00;97278.69;;;-3.38;100.00
29045;BME280;16133;49.486;12.176;2023-03-17T05:03:26;97283.88;;;-3.38;100.00
29045;BME280;16133;49.486;12.176;2023-03-17T05:05:52;97291.94;;;-3.43;100.00
29045;BME280;16133;49.486;12.176;2023-03-17T05:08:17;97286.00;;;-3.45;100.00
29045;BME280;16133;49.486;12.176;2023-03-17T05:10:42;97291.41;;;-3.48;100.00
29045;BME280;16133;49.486;12.176;2023-03-17T05:13:08;97300.84;;;-3.47;100.00
29045;BME280;16133;49.486;12.176;2023-03-17T05:15:33;97300.94;;;-3.48;100.00
29045;BME280;16133;49.486;12.176;2023-03-17T05:17:58;97307.88;;;-3.49;100.00
29045;BME280;16133;49.486;12.176;2023-03-17T05:20:24;97288.56;;;-3.57;100.00
29045;BME280;16133;49.486;12.176;2023-03-17T05:22:49;97303.63;;;-3.50;100.00
29045;BME280;16133;49.486;12.176;2023-03-17T05:25:14;97307.06;;;-3.49;100.00
29045;BME280;16133;49.486;12.176;2023-03-17T05:27:41;97302.81;;;-3.50;100.00
29045;BME280;16133;49.486;12.176;2023-03-17T05:30:08;97265.06;;;-3.68;100.00
29045;BME280;16133;49.486;12.176;2023-03-17T05:32:33;97289.63;;;-3.47;100.00
29045;BME280;16133;49.486;12.176;2023-03-17T05:35:00;97297.69;;;-3.38;100.00
29045;BME280;16133;49.486;12.176;2023-03-17T05:37:26;97294.69;;;-3.31;100.00
29045;BME280;16133;49.486;12.176;2023-03-17T05:39:51;97299.47;;;-3.25;100.00
29045;BME280;16133;49.486;12.176;2023-03-17T05:42:18;97297.34;;;-3.19;100.00
29045;BME280;16133;49.486;12.176;2023-03-17T05:44:43;97301.22;;;-3.12;100.00
29045;BME280;16133;49.486;12.176;2023-03-17T05:47:08;97292.00;;;-3.03;100.00
29045;BME280;16133;49.486;12.176;2023-03-17T05:49:34;97299.19;;;-2.94;100.00
29045;BME280;16133;49.486;12.176;2023-03-17T05:51:59;97302.22;;;-2.87;100.00
29045;BME280;16133;49.486;12.176;2023-03-17T05:54:25;97270.13;;;-2.99;100.00
29045;BME280;16133;49.486;12.176;2023-03-17T05:56:50;97289.66;;;-2.81;100.00
29045;BME280;16133;49.486;12.176;2023-03-17T05:59:16;97298.31;;;-2.68;100.00
29045;BME280;16133;49.486;12.176;2023-03-17T06:01:42;97292.09;;;-2.65;100.00
29045;BME280;16133;49.486;12.176;2023-03-17T06:04:08;97289.28;;;-2.62;100.00
29045;BME280;16133;49.486;12.176;2023-03-17T06:06:33;97285.94;;;-2.64;100.00
29045;BME280;16133;49.486;12.176;2023-03-17T06:08:59;97288.88;;;-2.56;100.00
29045;BME280;16133;49.486;12.176;2023-03-17T06:11:25;97271.72;;;-2.59;100.00
29045;BME280;16133;49.486;12.176;2023-03-17T06:13:51;97282.97;;;-2.46;100.00
29045;BME280;16133;49.486;12.176;2023-03-17T06:16:17;97288.69;;;-2.41;100.00
29045;BME280;16133;49.486;12.176;2023-03-17T06:18:43;97262.50;;;-2.50;100.00
29045;BME280;16133;49.486;12.176;2023-03-17T06:21:10;97279.34;;;-2.30;100.00
29045;BME280;16133;49.486;12.176;2023-03-17T06:23:35;97284.94;;;-2.24;100.00
29045;BME280;16133;49.486;12.176;2023-03-17T06:26:01;97254.38;;;-2.33;100.00
29045;BME280;16133;49.486;12.176;2023-03-17T06:28:26;97280.78;;;-2.14;100.00
29045;BME280;16133;49.486;12.176;2023-03-17T06:30:51;97277.34;;;-2.14;100.00
29045;BME280;16133;49.486;12.176;2023-03-17T06:33:17;97277.66;;;-2.06;100.00
29045;BME280;16133;49.486;12.176;2023-03-17T06:35:43;97277.66;;;-2.06;100.00
29045;BME280;16133;49.486;12.176;2023-03-17T06:38:08;97269.25;;;-2.10;100.00
29045;BME280;16133;49.486;12.176;2023-03-17T06:40:34;97295.94;;;-1.95;100.00
29045;BME280;16133;49.486;12.176;2023-03-17T06:43:00;97285.88;;;-2.00;100.00
29045;BME280;16133;49.486;12.176;2023-03-17T06:45:26;97305.72;;;-1.86;100.00
29045;BME280;16133;49.486;12.176;2023-03-17T06:47:51;97289.06;;;-1.83;100.00
29045;BME280;16133;49.486;12.176;2023-03-17T06:50:17;97300.81;;;-1.78;100.00
29045;BME280;16133;49.486;12.176;2023-03-17T06:52:42;97296.16;;;-1.73;100.00
29045;BME280;16133;49.486;12.176;2023-03-17T06:55:08;97296.31;;;-1.63;100.00
29045;BME280;16133;49.486;12.176;2023-03-17T06:57:33;97301.59;;;-1.52;100.00
29045;BME280;16133;49.486;12.176;2023-03-17T06:59:59;97308.78;;;-1.43;100.00
29045;BME280;16133;49.486;12.176;2023-03-17T07:02:24;97312.59;;;-1.36;100.00
29045;BME280;16133;49.486;12.176;2023-03-17T07:04:50;97306.41;;;-1.22;100.00
29045;BME280;16133;49.486;12.176;2023-03-17T07:07:16;97306.47;;;-1.11;100.00
29045;BME280;16133;49.486;12.176;2023-03-17T07:09:41;97306.72;;;-1.03;100.00
29045;BME280;16133;49.486;12.176;2023-03-17T07:12:07;97304.31;;;-0.93;100.00
29045;BME280;16133;49.486;12.176;2023-03-17T07:14:34;97308.63;;;-0.81;100.00
29045;BME280;16133;49.486;12.176;2023-03-17T07:17:00;97300.97;;;-0.72;100.00
29045;BME280;16133;49.486;12.176;2023-03-17T07:19:26;97303.59;;;-0.61;100.00
29045;BME280;16133;49.486;12.176;2023-03-17T07:21:51;97297.47;;;-0.49;100.00
29045;BME280;16133;49.486;12.176;2023-03-17T07:24:17;97294.22;;;-0.39;100.00
29045;BME280;16133;49.486;12.176;2023-03-17T07:26:43;97300.38;;;-0.29;100.00
29045;BME280;16133;49.486;12.176;2023-03-17T07:29:08;97264.59;;;-0.38;100.00
29045;BME280;16133;49.486;12.176;2023-03-17T07:31:34;97303.16;;;-0.09;100.00
29045;BME280;16133;49.486;12.176;2023-03-17T07:34:03;97303.50;;;-0.02;100.00
29045;BME280;16133;49.486;12.176;2023-03-17T07:36:28;97306.03;;;0.11;100.00
29045;BME280;16133;49.486;12.176;2023-03-17T07:38:54;97295.44;;;0.12;100.00
29045;BME280;16133;49.486;12.176;2023-03-17T07:41:19;97290.59;;;0.19;100.00
29045;BME280;16133;49.486;12.176;2023-03-17T07:43:46;97271.50;;;0.18;100.00
29045;BME280;16133;49.486;12.176;2023-03-17T07:46:11;97320.34;;;0.38;100.00
29045;BME280;16133;49.486;12.176;2023-03-17T07:48:37;97318.13;;;0.45;100.00
29045;BME280;16133;49.486;12.176;2023-03-17T07:51:09;97317.63;;;0.51;100.00
29045;BME280;16133;49.486;12.176;2023-03-17T07:53:36;97315.50;;;0.56;100.00
29045;BME280;16133;49.486;12.176;2023-03-17T07:56:02;97301.03;;;0.52;100.00
29045;BME280;16133;49.486;12.176;2023-03-17T07:58:27;97321.41;;;0.69;100.00
29045;BME280;16133;49.486;12.176;2023-03-17T08:00:52;97316.66;;;0.74;100.00
29045;BME280;16133;49.486;12.176;2023-03-17T08:03:19;97333.84;;;0.88;100.00
29045;BME280;16133;49.486;12.176;2023-03-17T08:05:44;97326.97;;;0.87;100.00
29045;BME280;16133;49.486;12.176;2023-03-17T08:08:09;97333.09;;;0.97;100.00
29045;BME280;16133;49.486;12.176;2023-03-17T08:10:35;97327.16;;;1.06;100.00
29045;BME280;16133;49.486;12.176;2023-03-17T08:13:00;97327.59;;;1.22;100.00
29045;BME280;16133;49.486;12.176;2023-03-17T08:15:26;97329.34;;;1.33;100.00
29045;BME280;16133;49.486;12.176;2023-03-17T08:17:51;97287.56;;;1.22;100.00
29045;BME280;16133;49.486;12.176;2023-03-17T08:20:17;97278.94;;;1.31;100.00
29045;BME280;16133;49.486;12.176;2023-03-17T08:22:43;97312.28;;;1.70;100.00
29045;BME280;16133;49.486;12.176;2023-03-17T08:25:08;97269.56;;;1.60;100.00
29045;BME280;16133;49.486;12.176;2023-03-17T08:27:35;97307.56;;;2.06;100.00
29045;BME280;16133;49.486;12.176;2023-03-17T08:30:02;97302.63;;;2.12;100.00
29045;BME280;16133;49.486;12.176;2023-03-17T08:32:28;97307.50;;;2.26;100.00
29045;BME280;16133;49.486;12.176;2023-03-17T08:34:53;97302.19;;;2.37;100.00
29045;BME280;16133;49.486;12.176;2023-03-17T08:37:19;97275.31;;;2.35;100.00
29045;BME280;16133;49.486;12.176;2023-03-17T08:39:45;97264.72;;;2.47;100.00
29045;BME280;16133;49.486;12.176;2023-03-17T08:42:12;97283.00;;;2.77;100.00
29045;BME280;16133;49.486;12.176;2023-03-17T08:44:37;97235.53;;;2.61;100.00
29045;BME280;16133;49.486;12.176;2023-03-17T08:47:02;97273.16;;;3.09;99.62
29045;BME280;16133;49.486;12.176;2023-03-17T08:49:28;97265.72;;;3.24;97.91
29045;BME280;16133;49.486;12.176;2023-03-17T08:51:53;97268.44;;;3.42;96.87
29045;BME280;16133;49.486;12.176;2023-03-17T08:54:18;97275.50;;;3.60;94.87
29045;BME280;16133;49.486;12.176;2023-03-17T08:56:45;97277.53;;;3.76;93.54
29045;BME280;16133;49.486;12.176;2023-03-17T08:59:11;97279.56;;;3.92;91.95
29045;BME280;16133;49.486;12.176;2023-03-17T09:01:36;97270.44;;;4.05;90.26
29045;BME280;16133;49.486;12.176;2023-03-17T09:04:02;97250.66;;;4.11;88.42
29045;BME280;16133;49.486;12.176;2023-03-17T09:06:27;97219.31;;;4.09;86.19
29045;BME280;16133;49.486;12.176;2023-03-17T09:08:52;97261.53;;;4.53;83.77
29045;BME280;16133;49.486;12.176;2023-03-17T09:11:23;97267.22;;;4.75;83.30
29045;BME280;16133;49.486;12.176;2023-03-17T09:13:49;97269.59;;;4.96;80.12
29045;BME280;16133;49.486;12.176;2023-03-17T09:16:15;97268.88;;;5.21;76.41
29045;BME280;16133;49.486;12.176;2023-03-17T09:18:42;97269.72;;;5.40;75.65
29045;BME280;16133;49.486;12.176;2023-03-17T09:21:09;97270.53;;;5.58;74.46
29045;BME280;16133;49.486;12.176;2023-03-17T09:23:35;97262.25;;;5.70;73.26
29045;BME280;16133;49.486;12.176;2023-03-17T09:26:01;97264.94;;;5.96;72.72
29045;BME280;16133;49.486;12.176;2023-03-17T09:28:27;97210.00;;;5.84;70.68
29045;BME280;16133;49.486;12.176;2023-03-17T09:30:59;97266.63;;;6.31;67.51
29045;BME280;16133;49.486;12.176;2023-03-17T09:33:26;97263.41;;;6.45;67.42
29045;BME280;16133;49.486;12.176;2023-03-17T09:35:52;97258.06;;;6.63;65.51
29045;BME280;16133;49.486;12.176;2023-03-17T09:38:18;97257.41;;;6.69;65.01
29045;BME280;16133;49.486;12.176;2023-03-17T09:46:23;97257.31;;;6.95;62.74
29045;BME280;16133;49.486;12.176;2023-03-17T09:51:52;97261.81;;;7.10;62.10
29045;BME280;16133;49.486;12.176;2023-03-17T09:54:27;97263.81;;;7.25;62.14
29045;BME280;16133;49.486;12.176;2023-03-17T09:59:42;97255.28;;;7.47;61.78
29045;BME280;16133;49.486;12.176;2023-03-17T10:02:17;97254.97;;;7.58;60.94
29045;BME280;16133;49.486;12.176;2023-03-17T10:04:45;97246.03;;;7.67;61.37
29045;BME280;16133;49.486;12.176;2023-03-17T10:07:16;97252.31;;;7.82;61.23
29045;BME280;16133;49.486;12.176;2023-03-17T10:10:04;97242.75;;;7.89;59.85
29045;BME280;16133;49.486;12.176;2023-03-17T10:15:26;97237.28;;;7.99;60.53
29045;BME280;16133;49.486;12.176;2023-03-17T10:17:57;97234.97;;;8.04;60.07
29045;BME280;16133;49.486;12.176;2023-03-17T10:20:32;97231.66;;;8.02;60.52
29045;BME280;16133;49.486;12.176;2023-03-17T10:23:04;97231.50;;;7.95;59.70
29045;BME280;16133;49.486;12.176;2023-03-17T10:25:33;97222.75;;;7.87;60.07
29045;BME280;16133;49.486;12.176;2023-03-17T10:30:42;97213.03;;;7.79;60.99
29045;BME280;16133;49.486;12.176;2023-03-17T10:33:08;97214.53;;;7.82;61.92
29045;BME280;16133;49.486;12.176;2023-03-17T10:35:34;97209.19;;;7.90;62.51
29045;BME280;16133;49.486;12.176;2023-03-17T10:38:22;97205.09;;;7.95;61.22
29045;BME280;16133;49.486;12.176;2023-03-17T10:40:57;97195.66;;;8.01;61.74
29045;BME280;16133;49.486;12.176;2023-03-17T10:43:28;97197.75;;;8.13;61.50
29045;BME280;16133;49.486;12.176;2023-03-17T10:45:59;97189.16;;;8.28;61.80
29045;BME280;16133;49.486;12.176;2023-03-17T10:48:25;97199.34;;;8.47;60.80
29045;BME280;16133;49.486;12.176;2023-03-17T10:50:50;97200.28;;;8.62;59.02
29045;BME280;16133;49.486;12.176;2023-03-17T10:53:19;97185.66;;;8.74;59.67
29045;BME280;16133;49.486;12.176;2023-03-17T10:55:55;97179.91;;;8.93;59.94
29045;BME280;16133;49.486;12.176;2023-03-17T11:00:58;97169.69;;;9.36;59.04
29045;BME280;16133;49.486;12.176;2023-03-17T11:03:27;97183.09;;;9.57;59.08
29045;BME280;16133;49.486;12.176;2023-03-17T11:06:02;97162.09;;;9.70;58.29
29045;BME280;16133;49.486;12.176;2023-03-17T11:08:34;97171.03;;;9.92;58.04
29045;BME280;16133;49.486;12.176;2023-03-17T11:11:05;97161.06;;;10.08;55.39
29045;BME280;16133;49.486;12.176;2023-03-17T11:13:31;97160.63;;;10.20;54.56
29045;BME280;16133;49.486;12.176;2023-03-17T11:16:13;97152.88;;;10.33;52.33
29045;BME280;16133;49.486;12.176;2023-03-17T11:18:41;97157.97;;;10.49;52.04
29045;BME280;16133;49.486;12.176;2023-03-17T11:21:17;97134.81;;;10.43;52.18
29045;BME280;16133;49.486;12.176;2023-03-17T11:23:52;97159.41;;;10.66;51.75
29045;BME280;16133;49.486;12.176;2023-03-17T11:26:45;97154.97;;;10.73;52.54
29045;BME280;16133;49.486;12.176;2023-03-17T11:32:34;97147.63;;;10.90;50.71
29045;BME280;16133;49.486;12.176;2023-03-17T11:40:43;97132.19;;;11.15;51.33
29045;BME280;16133;49.486;12.176;2023-03-17T11:43:36;97124.97;;;11.30;48.16
29045;BME280;16133;49.486;12.176;2023-03-17T11:46:22;97118.31;;;11.40;48.40
29045;BME280;16133;49.486;12.176;2023-03-17T11:49:12;97121.00;;;11.47;46.38
29045;BME280;16133;49.486;12.176;2023-03-17T11:54:49;97118.00;;;11.78;47.64
29045;BME280;16133;49.486;12.176;2023-03-17T11:57:30;97108.44;;;11.83;47.24
29045;BME280;16133;49.486;12.176;2023-03-17T12:00:01;97105.00;;;11.89;47.12
29045;BME280;16133;49.486;12.176;2023-03-17T12:05:04;97097.31;;;12.08;47.45
29045;BME280;16133;49.486;12.176;2023-03-17T12:07:34;97089.94;;;12.03;46.74
29045;BME280;16133;49.486;12.176;2023-03-17T12:12:55;97088.47;;;12.01;45.85
29045;BME280;16133;49.486;12.176;2023-03-17T12:15:34;97084.25;;;12.13;46.67
29045;BME280;16133;49.486;12.176;2023-03-17T12:18:14;97085.53;;;12.23;46.30
29045;BME280;16133;49.486;12.176;2023-03-17T12:20:50;97071.41;;;12.23;46.68
29045;BME280;16133;49.486;12.176;2023-03-17T12:23:34;97073.13;;;12.37;45.35
29045;BME280;16133;49.486;12.176;2023-03-17T12:26:06;97076.22;;;12.54;45.73
29045;BME280;16133;49.486;12.176;2023-03-17T12:28:39;97076.09;;;12.75;45.84
29045;BME280;16133;49.486;12.176;2023-03-17T12:31:11;97067.34;;;12.94;44.90
29045;BME280;16133;49.486;12.176;2023-03-17T12:36:34;97057.53;;;13.54;44.02
29045;BME280;16133;49.486;12.176;2023-03-17T12:39:07;97055.47;;;13.75;43.49
29045;BME280;16133;49.486;12.176;2023-03-17T12:55:30;97039.06;;;15.61;40.28
29045;BME280;16133;49.486;12.176;2023-03-17T13:00:55;97037.19;;;15.87;37.46
29045;BME280;16133;49.486;12.176;2023-03-17T13:03:27;97043.13;;;15.89;38.15
29045;BME280;16133;49.486;12.176;2023-03-17T13:06:00;97034.53;;;16.05;38.78
29045;BME280;16133;49.486;12.176;2023-03-17T13:08:35;97035.53;;;16.22;39.32
29045;BME280;16133;49.486;12.176;2023-03-17T13:11:16;97035.56;;;16.40;38.75
29045;BME280;16133;49.486;12.176;2023-03-17T13:21:32;97010.53;;;17.17;35.42
29045;BME280;16133;49.486;12.176;2023-03-17T13:24:19;97007.44;;;17.32;33.96
29045;BME280;16133;49.486;12.176;2023-03-17T13:26:59;96999.97;;;17.34;33.96
29045;BME280;16133;49.486;12.176;2023-03-17T13:37:32;96992.06;;;17.74;34.57
29045;BME280;16133;49.486;12.176;2023-03-17T13:42:47;96989.75;;;17.78;36.94
29045;BME280;16133;49.486;12.176;2023-03-17T13:47:50;96993.91;;;17.27;37.03
29045;BME280;16133;49.486;12.176;2023-03-17T13:50:31;96988.50;;;17.04;36.06
29045;BME280;16133;49.486;12.176;2023-03-17T13:53:03;96976.97;;;16.62;37.56
29045;BME280;16133;49.486;12.176;2023-03-17T13:55:39;97005.84;;;16.42;37.07
29045;BME280;16133;49.486;12.176;2023-03-17T14:00:34;96994.44;;;16.16;38.68
29045;BME280;16133;49.486;12.176;2023-03-17T14:03:09;96986.06;;;16.13;39.32
29045;BME280;16133;49.486;12.176;2023-03-17T14:05:38;96989.03;;;16.05;38.58
29045;BME280;16133;49.486;12.176;2023-03-17T14:08:11;96974.22;;;16.02;39.63
29045;BME280;16133;49.486;12.176;2023-03-17T14:10:40;96980.81;;;16.18;39.09
29045;BME280;16133;49.486;12.176;2023-03-17T14:13:22;96984.69;;;16.22;39.96
29045;BME280;16133;49.486;12.176;2023-03-17T14:15:52;96979.34;;;16.22;39.31